Time;durP1;ratioP1;P1;durP2;ratioP2;P2;SDS_P1;SDS_P2;PMS_P1;PMS_P2;Temp;Humidity;BMP_temperature;BMP_pressure;BME280_temperature;BME280_humidity;BME280_pressure;Samples;Min_cycle;Max_cycle;Signal;HPM_P1;HPM_P2
2022/06/05 00:00:18;;;;;;;5.67;5.27;;;;;;;19.28;90.39;98122.31;5134139;28;20289;-69
2022/06/05 00:03:15;;;;;;;6.40;5.90;;;;;;;19.27;89.79;98124.19;5134786;28;20183;-69
2022/06/05 00:05:52;;;;;;;6.53;5.97;;;;;;;19.18;90.77;98123.09;5133756;28;20281;-69
2022/06/05 00:08:53;;;;;;;5.93;5.53;;;;;;;19.18;90.55;98115.03;5133782;28;20335;-69
2022/06/05 00:11:22;;;;;;;6.13;5.63;;;;;;;19.16;91.24;98103.72;5030901;28;20637;-69
2022/06/05 00:13:58;;;;;;;6.40;5.67;;;;;;;19.11;91.86;98109.13;5114310;28;20625;-69
2022/06/05 00:16:28;;;;;;;6.43;6.03;;;;;;;19.06;92.59;98095.66;5134007;28;20210;-69
2022/06/05 00:18:55;;;;;;;5.77;5.37;;;;;;;18.98;93.15;98088.13;5133999;28;20317;-69
2022/06/05 00:21:21;;;;;;;6.37;5.70;;;;;;;19.09;91.37;98094.31;5133715;28;20207;-69
2022/06/05 00:23:50;;;;;;;6.17;5.70;;;;;;;19.06;92.77;98089.44;5134005;28;20285;-69
2022/06/05 00:26:16;;;;;;;6.60;6.00;;;;;;;19.00;92.45;98088.63;5135112;27;20213;-69
2022/06/05 00:29:07;;;;;;;7.33;6.70;;;;;;;18.97;93.02;98081.13;5137378;27;20254;-68
2022/06/05 00:31:49;;;;;;;6.50;6.00;;;;;;;19.00;92.27;98082.47;5137684;27;20240;-69
2022/06/05 00:34:15;;;;;;;6.93;6.33;;;;;;;18.99;91.93;98097.00;5137584;27;20207;-69
2022/06/05 00:36:59;;;;;;;7.23;6.53;;;;;;;19.00;91.69;98094.03;5137711;27;20209;-69
2022/06/05 00:39:44;;;;;;;6.33;5.80;;;;;;;18.91;93.34;98090.25;5137109;27;20313;-69
2022/06/05 00:42:20;;;;;;;6.53;5.93;;;;;;;18.88;93.57;98090.81;5137559;27;20190;-69
2022/06/05 00:44:51;;;;;;;7.10;6.50;;;;;;;18.86;94.13;98090.28;5120010;27;20237;-69
2022/06/05 00:47:21;;;;;;;6.30;5.83;;;;;;;18.82;94.08;98081.13;5137401;27;20277;-69
2022/06/05 00:49:55;;;;;;;6.47;5.87;;;;;;;18.74;94.34;98073.56;5137525;27;20202;-69
2022/06/05 00:52:24;;;;;;;6.67;6.10;;;;;;;18.81;93.68;98078.69;5137309;27;20210;-69
2022/06/05 00:54:50;;;;;;;6.37;5.77;;;;;;;18.78;95.14;98076.56;5136766;27;20395;-69
2022/06/05 00:57:17;;;;;;;6.90;6.20;;;;;;;18.77;94.22;98077.63;5137050;27;20208;-70
2022/06/05 00:59:46;;;;;;;6.30;5.70;;;;;;;18.75;94.34;98077.09;5137341;27;20298;-69
2022/06/05 01:02:14;;;;;;;6.53;6.10;;;;;;;18.68;95.44;98082.75;5136691;27;20687;-69
2022/06/05 01:04:43;;;;;;;5.93;5.50;;;;;;;18.66;94.70;98074.13;5136783;27;20202;-69
2022/06/05 01:07:11;;;;;;;6.77;6.17;;;;;;;18.64;95.11;98081.66;5137543;27;20294;-69
2022/06/05 01:09:39;;;;;;;7.00;6.40;;;;;;;18.76;94.33;98082.22;5136581;27;20309;-69
2022/06/05 01:12:20;;;;;;;8.20;6.20;;;;;;;18.77;94.42;98089.19;5136833;27;20230;-69
2022/06/05 01:14:57;;;;;;;7.23;6.53;;;;;;;18.79;93.63;98088.94;5102535;27;20631;-69
2022/06/05 01:17:32;;;;;;;7.30;6.60;;;;;;;18.75;94.05;98095.94;5137283;27;20194;-69
2022/06/05 01:20:04;;;;;;;7.00;6.13;;;;;;;18.69;94.90;98103.19;5118347;27;20186;-69
2022/06/05 01:22:49;;;;;;;7.00;5.93;;;;;;;18.71;94.12;98106.44;5136579;27;20281;-69
2022/06/05 01:25:42;;;;;;;6.87;6.37;;;;;;;18.65;95.25;98112.91;5137102;27;20548;-69
2022/06/05 01:28:17;;;;;;;6.13;5.63;;;;;;;18.60;95.36;98117.50;5136563;27;20219;-69
2022/06/05 01:30:52;;;;;;;6.87;6.27;;;;;;;18.74;93.45;98115.88;5136641;27;20273;-69
2022/06/05 01:33:23;;;;;;;7.57;6.23;;;;;;;18.97;91.17;98131.50;5136210;27;20640;-68
2022/06/05 01:36:12;;;;;;;7.73;7.03;;;;;;;18.58;94.58;98133.09;5136524;27;20221;-68
2022/06/05 01:39:03;;;;;;;7.80;7.10;;;;;;;18.54;95.52;98123.94;5135761;27;20313;-69
2022/06/05 01:41:37;;;;;;;7.27;6.60;;;;;;;18.42;97.48;98109.94;5136386;27;20274;-69
2022/06/05 01:44:09;;;;;;;7.77;7.13;;;;;;;18.37;96.91;98110.72;5118528;27;20199;-69
2022/06/05 01:46:39;;;;;;;8.23;7.50;;;;;;;18.44;95.86;98116.66;5136311;27;20275;-69
2022/06/05 01:49:37;;;;;;;7.27;6.67;;;;;;;18.63;94.77;98117.75;5136135;27;20218;-69
2022/06/05 01:52:26;;;;;;;7.67;7.07;;;;;;;18.45;95.41;98123.66;5136035;27;20191;-69
2022/06/05 01:55:11;;;;;;;7.87;7.03;;;;;;;18.44;95.80;98108.59;5135984;27;20755;-68
2022/06/05 01:57:38;;;;;;;7.90;7.27;;;;;;;18.41;96.00;98084.09;5135977;27;20219;-69
2022/06/05 02:00:24;;;;;;;7.50;6.90;;;;;;;18.40;96.13;98077.88;5117816;27;20198;-69
2022/06/05 02:03:00;;;;;;;8.03;7.43;;;;;;;18.32;96.82;98069.50;5135964;27;20273;-69
2022/06/05 02:05:33;;;;;;;8.43;7.73;;;;;;;18.29;96.88;98059.28;5118459;27;20190;-69
2022/06/05 02:08:07;;;;;;;8.43;7.57;;;;;;;18.26;97.04;98055.22;5135829;27;20587;-69
2022/06/05 02:10:48;;;;;;;10.30;8.53;;;;;;;18.20;97.03;98044.72;5135828;27;20606;-69
2022/06/05 02:13:16;;;;;;;8.23;7.47;;;;;;;18.19;98.21;98051.19;5135294;27;20751;-69
2022/06/05 02:15:42;;;;;;;9.07;8.37;;;;;;;18.24;97.66;98051.19;5135342;27;20203;-69
2022/06/05 02:18:09;;;;;;;8.60;7.87;;;;;;;18.22;97.83;98056.03;5135500;27;20233;-69
2022/06/05 02:20:36;;;;;;;9.07;8.37;;;;;;;18.20;98.18;98045.56;5135558;27;20309;-69
2022/06/05 02:23:05;;;;;;;8.27;7.57;;;;;;;18.22;98.46;98037.19;5136047;27;20202;-69
2022/06/05 02:25:33;;;;;;;9.63;8.87;;;;;;;18.21;97.90;98020.25;5117294;27;20289;-69
2022/06/05 02:28:00;;;;;;;9.07;8.37;;;;;;;18.17;98.64;98011.09;5135406;27;20223;-69
2022/06/05 02:30:41;;;;;;;8.57;7.97;;;;;;;18.13;99.58;97993.88;5135065;27;20198;-69
2022/06/05 02:33:37;;;;;;;8.97;8.17;;;;;;;18.09;99.75;97979.34;5116914;27;20298;-69
2022/06/05 02:36:30;;;;;;;9.70;8.80;;;;;;;18.03;100.00;97956.19;5119281;27;20286;-69
2022/06/05 02:39:08;;;;;;;9.53;8.73;;;;;;;18.07;100.00;97925.00;5135236;27;20218;-69
2022/06/05 02:42:04;;;;;;;9.43;8.63;;;;;;;18.13;99.60;97901.56;5117771;27;20281;-69
2022/06/05 02:44:47;;;;;;;9.10;8.30;;;;;;;18.19;99.00;97895.91;5134959;27;20230;-69
2022/06/05 02:47:46;;;;;;;8.87;7.97;;;;;;;18.29;98.07;97900.50;5135391;27;20191;-68
2022/06/05 02:50:24;;;;;;;8.00;7.30;;;;;;;18.34;97.74;97904.00;5134142;27;20193;-69
2022/06/05 02:52:52;;;;;;;8.30;7.60;;;;;;;18.41;96.85;97907.22;5100232;27;20238;-69
2022/06/05 02:55:22;;;;;;;8.47;7.67;;;;;;;18.44;96.71;97917.44;5134928;27;20201;-68
2022/06/05 02:57:49;;;;;;;8.47;7.73;;;;;;;18.42;96.54;97927.66;5134886;27;20229;-69
2022/06/05 03:00:27;;;;;;;8.30;7.60;;;;;;;18.28;97.39;97940.03;5134567;27;20573;-69
2022/06/05 03:05:39;;;;;;;8.80;8.10;;;;;;;18.15;99.02;97959.41;5134634;27;20253;-69
2022/06/05 03:08:07;;;;;;;9.17;8.37;;;;;;;18.12;99.35;97951.09;5134138;27;20788;-69
2022/06/05 03:10:34;;;;;;;9.10;8.20;;;;;;;18.05;99.80;97943.28;5135089;27;20229;-69
2022/06/05 03:13:01;;;;;;;8.80;7.93;;;;;;;18.05;100.00;97935.22;5134260;27;20227;-69
2022/06/05 03:15:31;;;;;;;8.50;7.70;;;;;;;18.01;100.00;97936.03;5134118;27;20202;-69
2022/06/05 03:17:58;;;;;;;8.90;8.10;;;;;;;17.97;100.00;97932.25;5134796;27;20313;-69
2022/06/05 03:20:25;;;;;;;8.57;7.97;;;;;;;17.95;100.00;97918.25;5134582;27;20206;-69
2022/06/05 03:22:52;;;;;;;8.50;7.80;;;;;;;17.94;100.00;97909.41;5134123;27;20213;-69
2022/06/05 03:25:22;;;;;;;8.50;7.70;;;;;;;17.95;100.00;97894.88;5134511;27;20198;-69
2022/06/05 03:27:48;;;;;;;8.30;7.60;;;;;;;17.89;100.00;97882.50;5134488;27;20313;-69
2022/06/05 03:30:16;;;;;;;8.93;8.23;;;;;;;17.88;100.00;97886.28;5133948;28;20668;-69
2022/06/05 03:32:46;;;;;;;8.93;8.20;;;;;;;17.90;100.00;97886.78;5133963;28;20202;-69
2022/06/05 03:35:13;;;;;;;9.07;8.37;;;;;;;17.89;100.00;97879.00;5134427;28;20228;-69
2022/06/05 03:37:40;;;;;;;9.10;8.30;;;;;;;17.95;100.00;97877.91;5133880;28;20648;-69
2022/06/05 03:40:12;;;;;;;9.10;8.33;;;;;;;17.96;100.00;97884.94;5134306;28;20209;-69
2022/06/05 03:42:38;;;;;;;8.57;7.87;;;;;;;17.98;100.00;97901.59;5134198;28;20202;-69
2022/06/05 03:45:05;;;;;;;8.47;7.87;;;;;;;17.99;100.00;97903.19;5133700;28;20206;-69
2022/06/05 03:47:32;;;;;;;9.10;8.30;;;;;;;17.96;100.00;97912.59;5134198;28;20297;-69
2022/06/05 03:49:58;;;;;;;8.83;8.13;;;;;;;17.97;100.00;97927.66;5134180;28;20203;-69
2022/06/05 03:52:25;;;;;;;9.17;8.47;;;;;;;17.96;100.00;97947.56;5133687;28;20198;-69
2022/06/05 03:54:51;;;;;;;8.77;8.07;;;;;;;18.03;100.00;97968.84;5133987;28;20234;-69
2022/06/05 03:57:18;;;;;;;9.10;8.30;;;;;;;18.02;100.00;97994.94;5133801;28;20212;-69
2022/06/05 03:59:44;;;;;;;9.40;8.60;;;;;;;18.06;100.00;98017.53;5134004;28;20210;-68
2022/06/05 04:02:11;;;;;;;9.00;8.30;;;;;;;18.07;100.00;98021.03;5137519;27;20206;-69
2022/06/05 04:04:38;;;;;;;9.63;8.83;;;;;;;18.08;100.00;98028.84;5138328;27;20289;-68
2022/06/05 04:07:04;;;;;;;9.27;8.47;;;;;;;18.03;100.00;98023.47;5137937;27;20298;-69
2022/06/05 04:09:30;;;;;;;9.83;9.13;;;;;;;18.01;100.00;98022.13;5137882;27;20229;-69
2022/06/05 04:11:57;;;;;;;10.10;9.30;;;;;;;18.00;100.00;98015.91;5138213;27;20561;-69
2022/06/05 04:14:23;;;;;;;10.07;9.30;;;;;;;17.95;100.00;98010.53;5137582;27;20226;-68
2022/06/05 04:16:50;;;;;;;10.40;9.50;;;;;;;18.10;100.00;97988.22;5137929;27;20205;-68
2022/06/05 04:19:16;;;;;;;10.00;9.10;;;;;;;18.12;100.00;97973.44;5137829;27;20313;-68
2022/06/05 04:21:46;;;;;;;9.80;8.90;;;;;;;18.12;100.00;97973.44;5138022;27;20203;-68
2022/06/05 04:24:13;;;;;;;11.40;10.50;;;;;;;17.98;100.00;97955.38;5138605;27;20234;-68
2022/06/05 04:26:41;;;;;;;10.93;9.93;;;;;;;17.79;100.00;97952.44;5137578;27;20698;-69
2022/06/05 04:29:08;;;;;;;11.57;10.57;;;;;;;17.72;100.00;97945.66;5137606;27;20701;-68
2022/06/05 04:31:38;;;;;;;12.90;11.70;;;;;;;17.57;100.00;97948.34;5137733;27;20625;-68
2022/06/05 04:34:10;;;;;;;12.90;11.80;;;;;;;17.55;100.00;97947.81;5137243;27;20685;-68
2022/06/05 04:36:37;;;;;;;13.43;12.33;;;;;;;17.51;100.00;97962.84;5137520;27;20203;-68
2022/06/05 04:39:04;;;;;;;13.30;12.20;;;;;;;17.49;100.00;97979.25;5137086;27;20226;-68
2022/06/05 04:41:31;;;;;;;13.73;12.57;;;;;;;17.49;100.00;97990.00;5137189;27;20620;-68
2022/06/05 04:43:57;;;;;;;13.57;12.40;;;;;;;17.50;100.00;97994.28;5136996;27;20201;-68
2022/06/05 04:46:27;;;;;;;13.67;12.57;;;;;;;17.46;100.00;98001.25;5137381;27;20209;-68
2022/06/05 04:48:53;;;;;;;14.10;12.90;;;;;;;17.46;100.00;98017.38;5137550;27;20317;-68
2022/06/05 04:51:20;;;;;;;14.67;13.30;;;;;;;17.43;100.00;98017.09;5136919;27;20668;-68
2022/06/05 04:53:47;;;;;;;15.13;13.83;;;;;;;17.37;100.00;98016.25;5136664;27;20317;-68
2022/06/05 04:56:18;;;;;;;15.33;14.00;;;;;;;17.45;100.00;98018.47;5136922;27;20217;-68
2022/06/05 04:58:45;;;;;;;15.20;13.70;;;;;;;17.37;100.00;98010.06;5137142;27;20275;-68
2022/06/05 05:01:16;;;;;;;15.80;14.47;;;;;;;17.33;100.00;98023.22;5136837;27;20202;-68
2022/06/05 05:03:43;;;;;;;15.17;13.73;;;;;;;17.30;100.00;98037.19;5136972;27;20285;-68
2022/06/05 05:06:10;;;;;;;17.30;15.60;;;;;;;17.25;100.00;98052.47;5136978;27;20290;-68
2022/06/05 05:08:37;;;;;;;16.83;15.57;;;;;;;17.23;100.00;98063.47;5136828;27;20253;-68
2022/06/05 05:11:04;;;;;;;17.33;15.83;;;;;;;17.25;100.00;98090.91;5136852;27;20209;-68
2022/06/05 05:13:30;;;;;;;17.40;15.80;;;;;;;17.28;100.00;98094.94;5135574;27;20592;-68
2022/06/05 05:15:57;;;;;;;17.73;16.17;;;;;;;17.29;100.00;98091.97;5136677;27;20213;-68
2022/06/05 05:18:24;;;;;;;17.00;15.33;;;;;;;17.35;100.00;98101.72;5136923;27;20346;-68
2022/06/05 05:20:51;;;;;;;17.93;16.43;;;;;;;17.28;100.00;98103.00;5136695;27;20293;-67
2022/06/05 05:23:19;;;;;;;18.00;16.53;;;;;;;17.24;100.00;98108.06;5136870;27;20195;-67
2022/06/05 05:25:47;;;;;;;18.70;16.77;;;;;;;17.26;100.00;98123.94;5136522;27;20207;-67
2022/06/05 05:28:14;;;;;;;19.43;17.73;;;;;;;17.24;100.00;98126.09;5136540;27;20338;-68
2022/06/05 05:30:45;;;;;;;19.50;17.90;;;;;;;17.23;100.00;98116.41;5136516;27;20285;-68
2022/06/05 05:33:13;;;;;;;17.80;16.30;;;;;;;17.23;100.00;98111.84;5136930;27;20203;-68
2022/06/05 05:35:39;;;;;;;17.87;16.43;;;;;;;17.22;100.00;98091.41;5136064;27;20293;-67
2022/06/05 05:38:06;;;;;;;19.93;18.23;;;;;;;17.19;100.00;98069.66;5136592;27;20279;-67
2022/06/05 05:43:28;;;;;;;22.03;19.93;;;;;;;17.12;100.00;98023.38;5053353;28;20189;-68
2022/06/05 05:45:54;;;;;;;22.67;20.67;;;;;;;17.10;100.00;98025.53;5116096;27;20301;-69
2022/06/05 05:48:20;;;;;;;21.57;19.57;;;;;;;17.10;100.00;98058.56;5136067;27;20224;-68
2022/06/05 05:50:47;;;;;;;21.63;19.63;;;;;;;17.08;100.00;98076.00;5135742;27;20664;-68
2022/06/05 05:53:13;;;;;;;23.77;21.47;;;;;;;17.05;100.00;98106.88;5135842;27;20228;-68
2022/06/05 05:55:40;;;;;;;26.90;24.50;;;;;;;17.03;100.00;98129.69;5136618;27;20286;-68
2022/06/05 05:58:06;;;;;;;25.17;22.93;;;;;;;16.98;100.00;98149.28;5135921;27;20309;-68
2022/06/05 06:00:33;;;;;;;26.97;24.37;;;;;;;16.98;100.00;98153.84;5135931;27;20289;-68
2022/06/05 06:02:59;;;;;;;25.63;23.27;;;;;;;17.03;100.00;98149.31;5135893;27;20226;-68
2022/06/05 06:05:26;;;;;;;23.93;21.73;;;;;;;17.08;100.00;98143.97;5135830;27;20206;-68
2022/06/05 06:07:53;;;;;;;21.70;19.63;;;;;;;17.18;100.00;98130.63;5135657;27;20321;-68
2022/06/05 06:10:19;;;;;;;22.67;20.77;;;;;;;17.09;100.00;98097.25;5135331;27;20210;-68
2022/06/05 06:12:46;;;;;;;22.20;20.10;;;;;;;17.08;100.00;98066.09;5135541;27;20293;-68
2022/06/05 06:15:12;;;;;;;21.67;19.80;;;;;;;17.12;100.00;98048.38;5135120;27;20222;-68
2022/06/05 06:17:39;;;;;;;23.13;20.93;;;;;;;17.07;100.00;98034.09;5135529;27;20225;-68
2022/06/05 06:20:06;;;;;;;23.43;21.20;;;;;;;17.03;100.00;98017.72;5135574;27;20203;-68
2022/06/05 06:22:34;;;;;;;23.20;21.20;;;;;;;17.02;100.00;98015.28;5135519;27;20289;-68
2022/06/05 06:25:00;;;;;;;20.43;18.67;;;;;;;17.00;100.00;98014.72;5135165;27;20194;-67
2022/06/05 06:27:28;;;;;;;17.57;15.97;;;;;;;16.94;100.00;98003.16;5135311;27;20289;-68
2022/06/05 06:29:54;;;;;;;17.73;15.97;;;;;;;16.94;100.00;97986.22;5135140;27;20213;-67
2022/06/05 06:32:21;;;;;;;17.43;15.83;;;;;;;16.88;100.00;97968.47;5135318;27;20293;-68
2022/06/05 06:34:47;;;;;;;17.00;15.50;;;;;;;16.87;100.00;97948.84;5135195;27;20222;-67
2022/06/05 06:37:14;;;;;;;16.10;14.77;;;;;;;16.83;100.00;97960.41;5134869;27;20595;-67
2022/06/05 06:39:40;;;;;;;15.90;14.40;;;;;;;16.82;100.00;97948.06;5135373;27;20309;-67
2022/06/05 06:42:07;;;;;;;13.00;11.83;;;;;;;16.84;100.00;97945.91;5135075;27;20237;-67
2022/06/05 06:44:33;;;;;;;11.67;10.57;;;;;;;16.85;100.00;97934.91;5135103;27;20225;-68
2022/06/05 06:46:59;;;;;;;10.77;9.67;;;;;;;16.91;100.00;97898.94;5134716;27;20720;-68
2022/06/05 06:49:26;;;;;;;10.37;9.27;;;;;;;16.89;100.00;97866.19;5135674;27;20314;-68
2022/06/05 06:51:52;;;;;;;10.53;9.47;;;;;;;16.87;100.00;97873.69;5134948;27;20285;-68
2022/06/05 06:54:19;;;;;;;10.47;9.47;;;;;;;16.87;100.00;97873.69;5134529;27;20692;-67
2022/06/05 06:56:45;;;;;;;9.30;8.40;;;;;;;16.90;100.00;97856.22;5135466;27;20297;-67
2022/06/05 06:59:12;;;;;;;10.07;9.13;;;;;;;16.93;100.00;97853.84;5134753;27;20227;-68
2022/06/05 07:01:38;;;;;;;10.17;8.10;;;;;;;16.93;100.00;97829.69;5134812;27;20206;-68
2022/06/05 07:04:05;;;;;;;7.47;6.77;;;;;;;17.09;100.00;97825.94;5134764;27;20289;-68
2022/06/05 07:06:31;;;;;;;7.63;6.93;;;;;;;17.07;100.00;97811.97;5134697;27;20202;-68
2022/06/05 07:08:58;;;;;;;7.57;6.30;;;;;;;17.07;100.00;97795.88;5134636;27;20218;-68
2022/06/05 07:11:24;;;;;;;7.03;6.33;;;;;;;17.02;100.00;97781.63;5134694;27;20206;-68
2022/06/05 07:13:52;;;;;;;10.27;7.70;;;;;;;16.96;100.00;97778.09;5134503;27;20215;-68
2022/06/05 07:16:19;;;;;;;8.60;7.80;;;;;;;16.94;100.00;97828.59;5134628;27;20297;-68
2022/06/05 07:18:46;;;;;;;12.13;9.20;;;;;;;16.94;100.00;97820.53;5134149;27;20228;-67
2022/06/05 07:21:19;;;;;;;7.90;7.20;;;;;;;16.89;100.00;97823.22;5134141;27;20237;-67
2022/06/05 07:23:46;;;;;;;7.87;6.50;;;;;;;16.92;100.00;97846.84;5134719;27;20202;-67
2022/06/05 07:26:15;;;;;;;7.70;7.00;;;;;;;16.94;100.00;97847.41;5134457;27;20289;-68
2022/06/05 07:28:42;;;;;;;8.93;8.13;;;;;;;17.02;100.00;97821.91;5134409;27;20310;-68
2022/06/05 07:31:11;;;;;;;10.87;9.67;;;;;;;17.00;100.00;97846.34;5134436;28;20199;-67
2022/06/05 07:33:37;;;;;;;10.77;9.60;;;;;;;16.97;100.00;97854.91;5134335;28;20198;-68
2022/06/05 07:36:07;;;;;;;10.70;9.70;;;;;;;17.03;100.00;97867.28;5135322;27;20203;-68
2022/06/05 07:38:35;;;;;;;11.57;9.60;;;;;;;16.94;100.00;97838.53;5138624;27;20226;-69
2022/06/05 07:41:03;;;;;;;7.63;6.93;;;;;;;16.94;100.00;97807.13;5138422;27;20301;-68
2022/06/05 07:43:30;;;;;;;5.43;4.87;;;;;;;16.95;100.00;97805.22;5138119;27;20202;-69
2022/06/05 07:45:57;;;;;;;6.27;4.50;;;;;;;16.96;100.00;97820.28;5138151;27;20646;-69
2022/06/05 07:48:24;;;;;;;9.33;5.90;;;;;;;16.89;100.00;97828.59;5138363;27;20226;-68
2022/06/05 07:56:30;;;;;;;6.20;5.50;;;;;;;16.97;100.00;97862.97;5138289;27;20178;-69
2022/06/05 07:58:56;;;;;;;9.30;6.97;;;;;;;16.95;100.00;97864.28;5138198;27;20233;-69
2022/06/05 08:01:22;;;;;;;8.57;7.87;;;;;;;17.00;100.00;97867.00;5138198;27;20289;-69
2022/06/05 08:03:49;;;;;;;7.93;7.10;;;;;;;17.04;100.00;97860.84;5138161;27;20292;-68
2022/06/05 08:06:15;;;;;;;8.20;6.90;;;;;;;17.07;100.00;97867.56;5137790;27;20636;-68
2022/06/05 08:08:42;;;;;;;7.67;5.93;;;;;;;17.19;100.00;97860.88;5138076;27;20587;-69
2022/06/05 08:11:08;;;;;;;6.70;5.50;;;;;;;17.27;100.00;97872.97;5137799;27;20301;-68
2022/06/05 08:13:35;;;;;;;5.87;5.20;;;;;;;17.34;100.00;97874.38;5138085;27;20214;-69
2022/06/05 08:16:02;;;;;;;6.00;5.43;;;;;;;17.38;100.00;97874.63;5137607;27;20233;-69
2022/06/05 08:18:29;;;;;;;4.73;4.30;;;;;;;17.47;100.00;97863.09;5137664;27;20222;-69
2022/06/05 08:20:55;;;;;;;4.93;4.53;;;;;;;17.56;100.00;97858.81;5137831;27;20293;-69
2022/06/05 08:23:22;;;;;;;5.27;4.40;;;;;;;17.66;100.00;97852.66;5137818;27;20309;-69
2022/06/05 08:25:48;;;;;;;5.93;3.87;;;;;;;17.81;100.00;97866.09;5137422;27;20206;-69
2022/06/05 08:28:16;;;;;;;5.60;4.27;;;;;;;17.88;100.00;97869.31;5137575;27;20258;-69
2022/06/05 08:30:42;;;;;;;3.63;3.33;;;;;;;17.96;100.00;97856.13;5137728;27;20209;-68
2022/06/05 08:33:10;;;;;;;4.77;3.70;;;;;;;18.18;100.00;97870.09;5137733;27;20199;-69
2022/06/05 08:35:36;;;;;;;4.50;3.17;;;;;;;18.21;100.00;97868.75;5137749;27;20254;-69
2022/06/05 08:41:29;;;;;;;3.83;3.10;;;;;;;18.47;100.00;97867.66;5088607;27;20199;-69
2022/06/05 08:44:07;;;;;;;2.77;2.50;;;;;;;18.54;100.00;97868.97;5137125;27;20183;-69
2022/06/05 08:46:52;;;;;;;4.73;3.30;;;;;;;18.60;100.00;97851.69;5137101;27;20621;-68
2022/06/05 08:49:43;;;;;;;5.07;2.77;;;;;;;18.74;100.00;97855.41;5137262;27;20314;-69
2022/06/05 08:52:42;;;;;;;2.63;2.43;;;;;;;18.78;100.00;97859.19;5137325;27;20190;-69
2022/06/05 08:55:32;;;;;;;4.07;2.60;;;;;;;18.86;100.00;97855.91;5137399;27;20207;-68
2022/06/05 08:58:25;;;;;;;4.30;2.87;;;;;;;18.97;100.00;97868.28;5137068;27;20250;-69
2022/06/05 09:01:17;;;;;;;2.00;1.80;;;;;;;19.15;100.00;97859.56;5132427;27;20206;-69
2022/06/05 09:03:55;;;;;;;2.60;2.10;;;;;;;19.39;100.00;97857.81;5118898;27;20274;-69
2022/06/05 09:06:33;;;;;;;2.70;2.10;;;;;;;19.66;100.00;97854.66;5136673;27;20709;-69
2022/06/05 09:09:05;;;;;;;4.80;2.10;;;;;;;20.00;100.00;97852.75;5136993;27;20254;-68
2022/06/05 09:11:37;;;;;;;3.93;1.83;;;;;;;20.16;100.00;97858.84;5119293;27;20191;-69
2022/06/05 09:14:06;;;;;;;4.17;1.93;;;;;;;20.23;100.00;97859.31;5136609;27;20187;-69
2022/06/05 09:16:42;;;;;;;2.87;1.77;;;;;;;20.11;100.00;97861.59;5136666;27;20660;-69
2022/06/05 09:19:13;;;;;;;2.50;2.20;;;;;;;20.21;100.00;97853.41;5118503;27;20595;-69
2022/06/05 09:21:57;;;;;;;4.67;2.00;;;;;;;20.14;100.00;97864.53;5136453;27;20282;-69
2022/06/05 09:24:38;;;;;;;3.10;1.87;;;;;;;20.23;100.00;97870.09;5118381;27;20183;-69
2022/06/05 09:27:20;;;;;;;3.53;1.90;;;;;;;20.06;100.00;97873.19;5119218;27;20194;-69
2022/06/05 09:30:05;;;;;;;1.80;1.47;;;;;;;19.94;98.41;97872.75;5136828;27;20278;-69
2022/06/05 09:32:43;;;;;;;3.17;1.57;;;;;;;20.04;99.48;97874.56;5136609;27;20277;-70
2022/06/05 09:35:12;;;;;;;2.30;1.60;;;;;;;20.03;100.00;97883.78;5118268;27;20669;-67
2022/06/05 09:37:49;;;;;;;3.07;1.50;;;;;;;20.04;99.73;97891.59;5136224;27;20224;-68
2022/06/05 09:40:29;;;;;;;2.00;1.73;;;;;;;20.18;100.00;97891.75;5118776;27;20648;-67
2022/06/05 09:43:34;;;;;;;3.57;1.60;;;;;;;20.12;100.00;97895.59;5135906;27;20635;-67
2022/06/05 09:46:14;;;;;;;1.93;1.70;;;;;;;20.55;94.94;97897.31;5135740;27;20671;-67
2022/06/05 09:48:49;;;;;;;2.90;1.60;;;;;;;20.66;94.07;97902.31;5135682;27;20312;-67
2022/06/05 09:51:18;;;;;;;2.57;1.70;;;;;;;20.65;90.88;97906.13;5136618;27;20607;-67
2022/06/05 09:54:00;;;;;;;2.27;1.30;;;;;;;20.75;91.60;97916.03;5135823;27;20589;-67
2022/06/05 09:58:24;;;;;;;1.93;1.50;;;;;;;20.69;91.77;97925.25;5135812;27;20217;-67
2022/06/05 09:59:27;;;;;;;1.67;1.50;;;;;;;20.64;93.48;97922.63;5134795;27;20230;-67
2022/06/05 10:02:00;;;;;;;1.53;1.43;;;;;;;20.74;92.23;97922.50;5118642;27;20190;-67
2022/06/05 10:04:32;;;;;;;2.03;1.37;;;;;;;21.02;97.03;97913.59;5135742;27;20205;-67
2022/06/05 10:07:31;;;;;;;3.97;1.60;;;;;;;21.36;90.95;97920.44;5136015;27;20289;-67
2022/06/05 10:10:02;;;;;;;1.50;1.40;;;;;;;21.46;88.11;97917.59;5116318;27;20237;-67
2022/06/05 10:12:54;;;;;;;2.90;1.60;;;;;;;21.53;90.17;97920.72;5118105;27;20191;-68
2022/06/05 10:15:29;;;;;;;2.90;1.67;;;;;;;21.81;89.54;97930.66;5135182;27;20693;-68
2022/06/05 10:17:58;;;;;;;3.37;1.57;;;;;;;21.64;88.34;97930.31;5135197;27;20313;-67
2022/06/05 10:20:36;;;;;;;3.70;1.40;;;;;;;21.64;89.21;97937.63;5134996;27;20198;-67
2022/06/05 10:23:08;;;;;;;2.03;1.40;;;;;;;21.65;88.47;97931.09;5135865;27;20189;-68
2022/06/05 10:25:46;;;;;;;2.37;1.37;;;;;;;21.69;88.63;97934.84;5135229;27;20214;-68
2022/06/05 10:28:31;;;;;;;2.97;1.60;;;;;;;21.58;92.88;97936.91;5135101;27;20226;-68
2022/06/05 10:31:04;;;;;;;2.93;1.20;;;;;;;21.58;86.08;97946.91;5135378;27;20288;-68
2022/06/05 10:33:40;;;;;;;2.97;1.43;;;;;;;21.49;86.44;97954.06;5135350;27;20244;-68
2022/06/05 10:36:18;;;;;;;5.43;1.73;;;;;;;21.48;87.22;97947.84;5134907;27;20221;-68
2022/06/05 10:39:14;;;;;;;3.90;1.50;;;;;;;21.43;87.25;97933.59;5134978;27;20309;-68
2022/06/05 10:41:50;;;;;;;4.03;1.80;;;;;;;21.24;88.29;97941.69;5134691;27;20189;-68
2022/06/05 10:44:26;;;;;;;4.43;1.70;;;;;;;21.14;90.75;97941.00;5134696;27;20183;-68
2022/06/05 10:46:53;;;;;;;3.43;1.83;;;;;;;21.09;91.00;97932.94;5134918;27;20244;-68
2022/06/05 10:49:43;;;;;;;2.50;1.70;;;;;;;20.97;94.35;97925.25;5134759;27;20249;-68
2022/06/05 10:52:36;;;;;;;5.03;2.53;;;;;;;20.69;100.00;97919.84;5119426;27;20197;-68
2022/06/05 10:55:17;;;;;;;5.20;2.63;;;;;;;20.45;100.00;97911.75;5116320;27;20309;-68
2022/06/05 10:57:52;;;;;;;3.70;3.00;;;;;;;20.27;100.00;97922.44;5134322;27;20225;-68
2022/06/05 11:00:22;;;;;;;3.10;2.70;;;;;;;20.14;100.00;97931.19;5117394;27;20276;-68
2022/06/05 11:03:03;;;;;;;7.90;3.37;;;;;;;19.91;100.00;97911.13;5134267;27;20740;-68
2022/06/05 11:05:54;;;;;;;6.30;3.40;;;;;;;19.82;100.00;97901.19;5134390;27;20200;-71
2022/06/05 11:08:52;;;;;;;5.60;3.60;;;;;;;19.70;100.00;97882.69;5134672;27;20309;-68
2022/06/05 11:15:01;;;;;;;4.43;3.40;;;;;;;19.68;100.00;97882.16;5134980;27;20215;-68
2022/06/05 11:17:50;;;;;;;4.10;3.70;;;;;;;19.66;100.00;97875.44;5116324;28;20183;-68
2022/06/05 11:20:22;;;;;;;5.13;3.70;;;;;;;19.66;100.00;97867.34;5134785;27;20602;-68
2022/06/05 11:23:03;;;;;;;6.73;4.30;;;;;;;19.58;100.00;97874.94;5116283;27;20739;-68
2022/06/05 11:25:37;;;;;;;6.07;4.47;;;;;;;19.49;100.00;97883.88;5116999;28;20213;-67
2022/06/05 11:28:35;;;;;;;5.73;4.23;;;;;;;19.58;100.00;97903.78;5116770;27;20245;-68
2022/06/05 11:31:36;;;;;;;5.13;3.90;;;;;;;19.49;100.00;97903.59;5091005;28;20275;-68
2022/06/05 11:34:25;;;;;;;5.87;3.50;;;;;;;19.60;100.00;97909.72;5134392;28;20187;-67
2022/06/05 11:36:55;;;;;;;6.40;4.10;;;;;;;19.52;100.00;97911.13;5134091;28;20263;-67
2022/06/05 11:39:24;;;;;;;7.83;3.97;;;;;;;19.51;100.00;97901.41;5134260;28;20226;-68
2022/06/05 11:42:21;;;;;;;5.07;3.57;;;;;;;19.50;100.00;97909.78;5133992;28;20199;-67
2022/06/05 11:45:29;;;;;;;5.57;3.40;;;;;;;19.65;100.00;97920.47;5134109;28;20186;-68
2022/06/05 11:48:05;;;;;;;4.50;2.80;;;;;;;19.75;100.00;97927.69;5133576;28;20240;-68
2022/06/05 11:50:38;;;;;;;4.43;2.70;;;;;;;19.88;100.00;97922.47;5134295;28;20277;-67
2022/06/05 11:53:29;;;;;;;3.90;2.97;;;;;;;20.07;100.00;97922.59;5133879;28;20241;-68
2022/06/05 11:56:10;;;;;;;6.50;3.37;;;;;;;20.42;100.00;97928.50;5118608;28;20317;-69
2022/06/05 11:58:52;;;;;;;4.20;2.73;;;;;;;20.65;100.00;97929.63;5115965;28;20316;-68
2022/06/05 12:01:23;;;;;;;7.53;3.10;;;;;;;21.00;100.00;97915.75;5133830;28;20193;-68
2022/06/05 12:04:18;;;;;;;3.63;2.57;;;;;;;21.16;99.34;97909.88;5133564;28;20254;-68
2022/06/05 12:06:55;;;;;;;4.33;2.60;;;;;;;21.40;100.00;97907.13;5133661;28;20187;-69
2022/06/05 12:09:25;;;;;;;6.30;3.20;;;;;;;21.62;100.00;97910.84;5133832;28;20319;-68